This is the latest recevied weather packets stored in our database for station/object DL9TPA-1. If no packets are shown the sender has not sent any weather packets the latest 10 day(s).
| Time | Temp. | Humidity | Pressure | Rain* | Wind** | Luminosity | Snow |
|---|---|---|---|---|---|---|---|
| 1777219585 | 12.78° C | 47% | 1022.9 hPa | 0 mm | - | - | - |
| 1777218982 | 12.78° C | 47% | 1022.9 hPa | 0 mm | - | - | - |
| 1777218379 | 12.78° C | 46% | 1022.9 hPa | 0 mm | - | - | - |
| 1777217777 | 12.78° C | 47% | 1022.9 hPa | 0 mm | - | - | - |
| 1777217176 | 13.33° C | 46% | 1023 hPa | 0 mm | - | - | - |
| 1777216573 | 13.33° C | 45% | 1023 hPa | 0 mm | - | - | - |
| 1777215972 | 13.89° C | 45% | 1023 hPa | 0 mm | - | - | - |
| 1777215370 | 14.44° C | 44% | 1023 hPa | 0 mm | - | - | - |
| 1777214768 | 15° C | 43% | 1023.1 hPa | 0 mm | - | - | - |
| 1777214165 | 16.11° C | 40% | 1023.1 hPa | 0 mm | - | - | - |
| 1777213564 | 17.22° C | 40% | 1023.2 hPa | 0 mm | - | - | - |
| 1777212962 | 17.78° C | 39% | 1023.2 hPa | 0 mm | - | - | - |
| 1777212361 | 17.78° C | 39% | 1023.4 hPa | 0 mm | - | - | - |
| 1777211758 | 16.67° C | 40% | 1023.5 hPa | 0 mm | - | - | - |
| 1777211155 | 17.22° C | 38% | 1023.5 hPa | 0 mm | - | - | - |
| 1777210554 | 17.78° C | 37% | 1023.5 hPa | 0 mm | - | - | - |
| 1777209952 | 18.89° C | 37% | 1023.6 hPa | 0 mm | - | - | - |
| 1777209349 | 19.44° C | 38% | 1023.7 hPa | 0 mm | - | - | - |
| 1777208748 | 20.56° C | 35% | 1023.7 hPa | 0 mm | - | - | - |
| 1777208147 | 20° C | 37% | 1023.7 hPa | 0 mm | - | - | - |
| 1777207545 | 19.44° C | 38% | 1023.8 hPa | 0 mm | - | - | - |
| 1777206942 | 19.44° C | 37% | 1023.8 hPa | 0 mm | - | - | - |
| 1777206340 | 18.89° C | 40% | 1023.9 hPa | 0 mm | - | - | - |
| 1777205738 | 18.89° C | 37% | 1024 hPa | 0 mm | - | - | - |
| 1777205137 | 19.44° C | 36% | 1024 hPa | 0 mm | - | - | - |
* Rain latest hour (hover to see other rain measurements)
** Current wind speed in m/s (hover to see current wind gust speed)